createdAt,value
2019-01-15T00:00:40.000Z,3.50
2019-01-15T00:03:27.979Z,3.40
2019-01-15T00:06:16.708Z,3.40
2019-01-15T00:09:07.897Z,3.30
2019-01-15T00:11:56.107Z,3.30
2019-01-15T00:14:44.223Z,3.20
2019-01-15T00:17:32.875Z,3.20
2019-01-15T00:20:20.400Z,3.30
2019-01-15T00:23:08.636Z,3.40
2019-01-15T00:25:57.395Z,3.30
2019-01-15T00:28:45.455Z,3.30
2019-01-15T00:31:34.197Z,3.30
2019-01-15T00:34:22.257Z,3.20
2019-01-15T00:37:09.951Z,3.20
2019-01-15T00:39:58.842Z,3.10
2019-01-15T00:42:47.195Z,3.00
2019-01-15T00:45:35.554Z,3.00
2019-01-15T00:48:23.839Z,2.90
2019-01-15T00:51:11.511Z,2.80
2019-01-15T00:54:00.656Z,2.80
2019-01-15T00:56:49.349Z,2.80
2019-01-15T00:59:37.600Z,2.70
2019-01-15T01:02:25.247Z,2.60
2019-01-15T01:05:15.397Z,2.70
2019-01-15T01:08:04.635Z,2.70
2019-01-15T01:10:53.632Z,2.60
2019-01-15T01:13:41.847Z,2.60
2019-01-15T01:16:29.917Z,2.70
2019-01-15T01:19:17.688Z,2.70
2019-01-15T01:22:06.439Z,2.70
2019-01-15T01:24:54.812Z,2.70
2019-01-15T01:27:43.439Z,2.70
2019-01-15T01:30:31.443Z,2.80
2019-01-15T01:33:19.135Z,2.80
2019-01-15T01:36:07.146Z,2.90
2019-01-15T01:38:55.691Z,2.90
2019-01-15T01:41:43.923Z,2.90
2019-01-15T01:44:31.831Z,2.90
2019-01-15T01:47:19.635Z,3.00
2019-01-15T01:50:08.529Z,3.00
2019-01-15T01:52:56.302Z,3.00
2019-01-15T01:55:44.991Z,2.90
2019-01-15T01:58:33.421Z,2.90
2019-01-15T02:01:21.655Z,3.00
2019-01-15T02:04:10.138Z,3.00
2019-01-15T02:06:58.174Z,3.00
2019-01-15T02:09:46.651Z,2.90
2019-01-15T02:12:36.966Z,3.00
2019-01-15T02:15:25.690Z,3.00
2019-01-15T02:18:13.910Z,3.00
2019-01-15T02:21:01.963Z,3.10
2019-01-15T02:23:50.259Z,3.10
2019-01-15T02:26:38.710Z,3.10
2019-01-15T02:29:26.812Z,3.10
2019-01-15T02:32:15.055Z,3.10
2019-01-15T02:35:03.782Z,3.10
2019-01-15T02:37:51.735Z,3.10
2019-01-15T02:40:40.015Z,3.10
2019-01-15T02:43:28.490Z,3.20
2019-01-15T02:46:16.846Z,3.10
2019-01-15T02:49:05.152Z,3.10
2019-01-15T02:51:53.180Z,3.10
2019-01-15T02:54:41.417Z,3.10
2019-01-15T02:57:29.383Z,3.20
2019-01-15T03:00:25.299Z,3.20
2019-01-15T03:03:13.050Z,3.20
2019-01-15T03:06:01.346Z,3.20
2019-01-15T03:08:49.866Z,3.30
2019-01-15T03:11:38.523Z,3.20
2019-01-15T03:14:26.878Z,3.30
2019-01-15T03:17:15.058Z,3.30
2019-01-15T03:20:04.818Z,3.30
2019-01-15T03:22:53.026Z,3.30
2019-01-15T03:25:41.532Z,3.30
2019-01-15T03:28:29.998Z,3.30
2019-01-15T03:31:17.952Z,3.40
2019-01-15T03:34:06.478Z,3.30
2019-01-15T03:36:54.590Z,3.30
2019-01-15T03:39:43.179Z,3.40
2019-01-15T03:42:31.316Z,3.40
2019-01-15T03:45:18.967Z,3.30
2019-01-15T03:48:07.084Z,3.40
2019-01-15T03:50:55.594Z,3.40
2019-01-15T03:53:43.344Z,3.40
2019-01-15T03:56:31.733Z,3.40
2019-01-15T03:59:19.669Z,3.40
2019-01-15T04:02:08.179Z,3.40
2019-01-15T04:04:57.120Z,3.40
2019-01-15T04:07:45.923Z,3.40
2019-01-15T04:10:34.612Z,3.40
2019-01-15T04:13:22.708Z,3.50
2019-01-15T04:16:11.166Z,3.50
2019-01-15T04:18:59.619Z,3.50
2019-01-15T04:21:47.894Z,3.40
2019-01-15T04:24:36.080Z,3.50
2019-01-15T04:27:24.547Z,3.50
2019-01-15T04:30:15.624Z,3.60
2019-01-15T04:33:03.887Z,3.60
2019-01-15T04:35:52.106Z,3.60
2019-01-15T04:38:40.356Z,3.60
2019-01-15T04:41:28.369Z,3.60
2019-01-15T04:44:15.911Z,3.60
2019-01-15T04:47:04.347Z,3.60
2019-01-15T04:49:53.451Z,3.70
2019-01-15T04:52:44.318Z,3.70
2019-01-15T04:55:33.603Z,3.70
2019-01-15T04:58:21.762Z,3.80
2019-01-15T05:01:09.853Z,3.70
2019-01-15T05:03:57.821Z,3.70
2019-01-15T05:06:46.258Z,3.80
2019-01-15T05:09:34.490Z,3.80
2019-01-15T05:12:22.467Z,3.80
2019-01-15T05:15:13.074Z,3.90
2019-01-15T05:18:02.245Z,3.90
2019-01-15T05:20:50.652Z,3.90
2019-01-15T05:23:38.824Z,3.90
2019-01-15T05:26:28.276Z,3.90
2019-01-15T05:29:16.289Z,4.00
2019-01-15T05:32:04.138Z,4.00
2019-01-15T05:34:52.183Z,4.00
2019-01-15T05:37:39.927Z,4.00
2019-01-15T05:40:28.419Z,4.00
2019-01-15T05:43:16.728Z,4.00
2019-01-15T05:46:05.378Z,4.10
2019-01-15T05:48:53.761Z,4.10
2019-01-15T05:51:43.071Z,4.10
2019-01-15T05:54:31.571Z,4.10
2019-01-15T05:57:19.622Z,4.10
2019-01-15T06:00:09.057Z,4.10
2019-01-15T06:02:56.563Z,4.10
2019-01-15T06:05:44.843Z,4.10
2019-01-15T06:08:33.401Z,4.10
2019-01-15T06:11:21.914Z,4.10
2019-01-15T06:14:10.466Z,4.00
2019-01-15T06:16:58.755Z,4.00
2019-01-15T06:19:47.258Z,4.00
2019-01-15T06:22:35.847Z,4.00
2019-01-15T06:25:24.547Z,4.10
2019-01-15T06:28:12.743Z,4.10
2019-01-15T06:31:01.074Z,4.20
2019-01-15T06:33:49.424Z,4.20
2019-01-15T06:36:37.868Z,4.30
2019-01-15T06:39:26.246Z,4.30
2019-01-15T06:42:14.316Z,4.30
2019-01-15T06:45:02.303Z,4.40
2019-01-15T06:47:49.871Z,4.40
2019-01-15T06:50:37.683Z,4.40
2019-01-15T06:53:25.574Z,4.40
2019-01-15T06:56:14.180Z,4.40
2019-01-15T06:59:02.802Z,4.50
2019-01-15T07:01:51.010Z,4.50
2019-01-15T07:04:43.858Z,4.50
2019-01-15T07:07:28.722Z,4.50
2019-01-15T07:10:19.766Z,4.50
2019-01-15T07:13:08.983Z,4.60
2019-01-15T07:15:57.656Z,4.60
2019-01-15T07:18:45.343Z,4.60
2019-01-15T07:21:33.288Z,4.60
2019-01-15T07:24:21.683Z,4.60
2019-01-15T07:27:09.858Z,4.70
2019-01-15T07:29:58.141Z,4.70
2019-01-15T07:32:46.287Z,4.70
2019-01-15T07:35:34.196Z,4.80
2019-01-15T07:38:22.995Z,4.80
2019-01-15T07:41:10.895Z,4.80
2019-01-15T07:44:04.340Z,4.80
2019-01-15T07:46:48.971Z,4.90
2019-01-15T07:49:37.472Z,4.90
2019-01-15T07:52:25.179Z,5.00
2019-01-15T07:55:14.808Z,5.00
2019-01-15T07:58:02.386Z,5.00
2019-01-15T08:00:51.145Z,5.10
2019-01-15T08:03:39.458Z,5.10
2019-01-15T08:06:27.937Z,5.10
2019-01-15T08:09:15.975Z,5.10
2019-01-15T08:12:03.647Z,5.20
2019-01-15T08:14:51.921Z,5.20
2019-01-15T08:17:40.338Z,5.20
2019-01-15T08:20:28.519Z,5.20
2019-01-15T08:23:16.883Z,5.20
2019-01-15T08:26:05.407Z,5.30
2019-01-15T08:28:53.811Z,5.30
2019-01-15T08:31:42.262Z,5.40
2019-01-15T08:34:30.440Z,5.40
2019-01-15T08:37:18.686Z,5.50
2019-01-15T08:40:08.803Z,5.60
2019-01-15T08:42:57.039Z,5.70
2019-01-15T08:45:45.526Z,5.70
2019-01-15T08:48:34.855Z,5.70
2019-01-15T08:51:23.151Z,5.80
2019-01-15T08:54:11.702Z,5.80
2019-01-15T08:57:00.134Z,5.80
2019-01-15T08:59:48.772Z,5.70
2019-01-15T09:02:37.374Z,5.70
2019-01-15T09:05:25.558Z,5.80
2019-01-15T09:08:14.334Z,5.80
2019-01-15T09:11:02.978Z,5.90
2019-01-15T09:13:51.411Z,6.10
2019-01-15T09:16:40.086Z,6.10
2019-01-15T09:19:28.283Z,6.00
2019-01-15T09:22:16.651Z,6.10
2019-01-15T09:25:04.524Z,6.10
2019-01-15T09:27:53.086Z,6.10
2019-01-15T09:30:41.944Z,6.20
2019-01-15T09:33:30.235Z,6.30
2019-01-15T09:36:18.530Z,6.50
2019-01-15T09:39:08.643Z,6.50
2019-01-15T09:41:57.343Z,6.60
2019-01-15T09:44:45.697Z,6.60
2019-01-15T09:47:34.240Z,6.50
2019-01-15T09:50:22.750Z,6.50
2019-01-15T09:53:11.597Z,6.50
2019-01-15T09:55:59.698Z,6.40
2019-01-15T09:58:47.247Z,6.50
2019-01-15T10:01:35.231Z,6.40
2019-01-15T10:04:23.231Z,6.50
2019-01-15T10:07:11.538Z,6.60
2019-01-15T10:09:59.635Z,6.70
2019-01-15T10:12:48.211Z,6.60
2019-01-15T10:15:36.206Z,6.70
2019-01-15T10:18:25.046Z,6.70
2019-01-15T10:21:12.905Z,6.70
2019-01-15T10:24:01.078Z,6.80
2019-01-15T10:26:49.140Z,6.80
2019-01-15T10:29:37.386Z,6.70
2019-01-15T10:32:52.600Z,6.70
2019-01-15T10:35:59.039Z,6.70
2019-01-15T10:38:47.018Z,6.60
2019-01-15T10:41:35.652Z,6.70
2019-01-15T10:44:23.945Z,6.80
2019-01-15T10:47:12.291Z,6.80
2019-01-15T10:50:00.607Z,6.80
2019-01-15T10:52:48.562Z,6.80
2019-01-15T10:55:37.067Z,6.90
2019-01-15T10:58:25.845Z,7.00
2019-01-15T11:01:14.075Z,7.00
2019-01-15T11:04:01.598Z,7.00
2019-01-15T11:06:49.831Z,7.10
2019-01-15T11:09:38.064Z,7.10
2019-01-15T11:12:26.392Z,7.20
2019-01-15T11:15:14.815Z,7.30
2019-01-15T11:18:02.391Z,7.20
2019-01-15T11:20:50.935Z,7.20
2019-01-15T11:23:39.451Z,7.30
2019-01-15T11:26:27.563Z,7.50
2019-01-15T11:29:15.807Z,7.40
2019-01-15T11:32:03.723Z,7.40
2019-01-15T11:34:52.403Z,7.50
2019-01-15T11:37:40.978Z,7.60
2019-01-15T11:40:29.791Z,7.40
2019-01-15T11:43:18.287Z,7.40
2019-01-15T11:46:06.277Z,7.40
2019-01-15T11:48:54.463Z,7.50
2019-01-15T11:51:42.744Z,7.70
2019-01-15T11:54:30.771Z,7.90
2019-01-15T11:57:19.185Z,8.10
2019-01-15T12:00:14.622Z,8.20
2019-01-15T12:03:07.836Z,8.30
2019-01-15T12:06:33.208Z,8.20
2019-01-15T12:09:39.227Z,8.00
2019-01-15T12:12:49.012Z,7.90
2019-01-15T12:15:59.482Z,7.70
2019-01-15T12:19:17.151Z,7.50
2019-01-15T12:22:27.244Z,7.50
2019-01-15T12:25:31.629Z,7.40
2019-01-15T12:28:47.603Z,7.40
2019-01-15T12:32:00.586Z,7.40
2019-01-15T12:35:11.047Z,7.20
2019-01-15T12:38:27.214Z,7.10
2019-01-15T12:41:34.719Z,7.10
2019-01-15T12:44:39.798Z,7.10
2019-01-15T12:47:46.135Z,6.90
2019-01-15T12:50:41.907Z,6.80
2019-01-15T12:53:38.975Z,6.90
2019-01-15T12:56:41.523Z,6.90
2019-01-15T12:59:57.737Z,7.00
2019-01-15T13:03:14.360Z,7.10
2019-01-15T13:06:20.278Z,7.10
2019-01-15T13:09:39.670Z,7.10
2019-01-15T13:12:36.108Z,7.10
2019-01-15T13:15:34.688Z,7.10
2019-01-15T13:18:46.518Z,7.00
2019-01-15T13:21:42.278Z,7.10
2019-01-15T13:24:58.802Z,7.10
2019-01-15T13:28:14.626Z,7.10
2019-01-15T13:31:13.167Z,7.20
2019-01-15T13:34:21.296Z,7.30
2019-01-15T13:37:47.064Z,7.30
2019-01-15T13:41:12.136Z,7.30
2019-01-15T13:44:14.121Z,7.20
2019-01-15T13:47:18.628Z,7.30
2019-01-15T13:50:25.456Z,7.20
2019-01-15T13:53:32.781Z,7.20
2019-01-15T13:56:42.767Z,7.20
2019-01-15T13:59:57.476Z,7.30
2019-01-15T14:03:08.284Z,7.30
2019-01-15T14:06:14.947Z,7.30
2019-01-15T14:09:23.348Z,7.30
2019-01-15T14:12:33.749Z,7.30
2019-01-15T14:15:39.667Z,7.30
2019-01-15T14:18:46.266Z,7.30
2019-01-15T14:22:08.624Z,7.30
2019-01-15T14:25:09.079Z,7.30
2019-01-15T14:28:10.253Z,7.30
2019-01-15T14:31:11.060Z,7.30
2019-01-15T14:34:19.200Z,7.20
2019-01-15T14:37:20.475Z,7.20
2019-01-15T14:40:29.898Z,7.20
2019-01-15T14:43:35.667Z,7.20
2019-01-15T14:46:53.914Z,7.20
2019-01-15T14:49:59.739Z,7.20
2019-01-15T14:53:06.225Z,7.20
2019-01-15T14:56:16.273Z,7.20
2019-01-15T14:59:17.747Z,7.20
2019-01-15T15:02:28.396Z,7.20
2019-01-15T15:05:44.259Z,7.20
2019-01-15T15:08:54.109Z,7.10
2019-01-15T15:11:58.430Z,7.10
2019-01-15T15:14:58.167Z,7.10
2019-01-15T15:18:00.107Z,7.10
2019-01-15T15:21:19.698Z,7.10
2019-01-15T15:24:30.030Z,7.10
2019-01-15T15:27:29.994Z,7.10
2019-01-15T15:30:29.407Z,7.10
2019-01-15T15:33:39.526Z,7.20
2019-01-15T15:36:45.151Z,7.10
2019-01-15T15:39:51.719Z,7.10
2019-01-15T15:43:02.860Z,7.10
2019-01-15T15:46:11.167Z,7.00
2019-01-15T15:49:13.022Z,7.10
2019-01-15T15:52:23.849Z,7.10
2019-01-15T15:55:21.966Z,7.10
2019-01-15T15:58:35.186Z,7.10
2019-01-15T16:01:46.163Z,7.00
2019-01-15T16:04:53.611Z,7.10
2019-01-15T16:08:00.479Z,7.10
2019-01-15T16:11:05.930Z,7.10
2019-01-15T16:14:02.818Z,7.10
2019-01-15T16:17:07.130Z,7.10
2019-01-15T16:20:05.122Z,7.10
2019-01-15T16:23:24.222Z,7.00
2019-01-15T16:26:22.974Z,7.10
2019-01-15T16:29:21.995Z,7.10
2019-01-15T16:32:29.111Z,7.10
2019-01-15T16:35:49.511Z,7.10
2019-01-15T16:38:59.420Z,7.20
2019-01-15T16:42:02.836Z,7.20
2019-01-15T16:45:08.888Z,7.20
2019-01-15T16:48:22.360Z,7.20
2019-01-15T16:51:44.665Z,7.20
2019-01-15T16:55:04.144Z,7.20
2019-01-15T16:58:18.184Z,7.20
2019-01-15T17:01:23.103Z,7.30
2019-01-15T17:04:23.788Z,7.30
2019-01-15T17:07:24.540Z,7.30
2019-01-15T17:10:41.319Z,7.30
2019-01-15T17:13:54.211Z,7.30
2019-01-15T17:17:01.804Z,7.30
2019-01-15T17:20:10.491Z,7.30
2019-01-15T17:23:12.864Z,7.40
2019-01-15T17:26:26.140Z,7.40
2019-01-15T17:29:28.200Z,7.40
2019-01-15T17:32:42.412Z,7.40
2019-01-15T17:35:55.824Z,7.40
2019-01-15T17:39:01.787Z,7.40
2019-01-15T17:42:07.687Z,7.40
2019-01-15T17:45:12.224Z,7.40
2019-01-15T17:48:28.399Z,7.40
2019-01-15T17:51:38.816Z,7.40
2019-01-15T17:54:49.945Z,7.40
2019-01-15T17:58:12.396Z,7.50
2019-01-15T18:01:31.536Z,7.40
2019-01-15T18:04:37.394Z,7.40
2019-01-15T18:07:52.076Z,7.50
2019-01-15T18:10:58.367Z,7.50
2019-01-15T18:14:05.600Z,7.40
2019-01-15T18:17:05.945Z,7.40
2019-01-15T18:20:05.604Z,7.40
2019-01-15T18:23:12.066Z,7.40
2019-01-15T18:26:25.315Z,7.40
2019-01-15T18:29:24.251Z,7.40
2019-01-15T18:32:29.783Z,7.40
2019-01-15T18:35:35.996Z,7.50
2019-01-15T18:38:41.644Z,7.50
2019-01-15T18:41:41.236Z,7.40
2019-01-15T18:44:47.690Z,7.40
2019-01-15T18:47:53.351Z,7.40
2019-01-15T18:51:08.376Z,7.50
2019-01-15T18:54:07.488Z,7.40
2019-01-15T18:57:13.171Z,7.40
2019-01-15T19:00:18.956Z,7.40
2019-01-15T19:03:26.812Z,7.40
2019-01-15T19:06:41.606Z,7.40
2019-01-15T19:09:50.193Z,7.40
2019-01-15T19:12:54.539Z,7.40
2019-01-15T19:16:10.067Z,7.50
2019-01-15T19:19:23.286Z,7.40
2019-01-15T19:22:20.296Z,7.40
2019-01-15T19:25:26.216Z,7.40
2019-01-15T19:28:37.827Z,7.40
2019-01-15T19:31:42.111Z,7.40
2019-01-15T19:34:48.219Z,7.40
2019-01-15T19:38:04.411Z,7.40
2019-01-15T19:41:11.824Z,7.40
2019-01-15T19:44:21.930Z,7.40
2019-01-15T19:47:27.627Z,7.50
2019-01-15T19:50:33.387Z,7.40
2019-01-15T19:53:39.437Z,7.40
2019-01-15T19:56:52.616Z,7.40
2019-01-15T20:00:13.108Z,7.40
2019-01-15T20:03:18.612Z,7.50
2019-01-15T20:06:24.359Z,7.40
2019-01-15T20:09:30.167Z,7.40
2019-01-15T20:12:48.604Z,7.50
2019-01-15T20:16:08.281Z,7.40
2019-01-15T20:19:14.280Z,7.40
2019-01-15T20:22:24.228Z,7.40
2019-01-15T20:25:29.976Z,7.40
2019-01-15T20:28:55.023Z,7.40
2019-01-15T20:31:57.007Z,7.40
2019-01-15T20:35:02.092Z,7.50
2019-01-15T20:38:00.767Z,7.40
2019-01-15T20:41:02.464Z,7.40
2019-01-15T20:44:12.089Z,7.40
2019-01-15T20:47:17.056Z,7.50
2019-01-15T20:50:25.839Z,7.50
2019-01-15T20:53:31.981Z,7.50
2019-01-15T20:56:37.904Z,7.50
2019-01-15T20:59:48.628Z,7.50
2019-01-15T21:02:54.335Z,7.50
2019-01-15T21:06:00.504Z,7.40
2019-01-15T21:09:14.836Z,7.30
2019-01-15T21:12:20.776Z,7.30
2019-01-15T21:15:38.423Z,7.30
2019-01-15T21:18:35.635Z,7.40
2019-01-15T21:21:48.168Z,7.40
2019-01-15T21:24:54.567Z,7.40
2019-01-15T21:28:00.163Z,7.40
2019-01-15T21:31:06.363Z,7.30
2019-01-15T21:34:14.195Z,7.30
2019-01-15T21:37:27.300Z,7.30
2019-01-15T21:40:37.513Z,7.30
2019-01-15T21:43:59.311Z,7.30
2019-01-15T21:47:07.312Z,7.30
2019-01-15T21:50:15.380Z,7.30
2019-01-15T21:53:41.004Z,7.30
2019-01-15T21:56:41.491Z,7.30
2019-01-15T21:59:45.911Z,7.30
2019-01-15T22:02:42.316Z,7.30
2019-01-15T22:05:53.776Z,7.40
2019-01-15T22:09:03.166Z,7.30
2019-01-15T22:12:08.955Z,7.30
2019-01-15T22:15:19.098Z,7.20
2019-01-15T22:18:24.779Z,7.30
2019-01-15T22:21:26.542Z,7.30
2019-01-15T22:24:32.620Z,7.30
2019-01-15T22:27:30.746Z,7.30
2019-01-15T22:30:35.484Z,7.30
2019-01-15T22:33:43.631Z,7.30
2019-01-15T22:37:06.446Z,7.30
2019-01-15T22:40:11.618Z,7.30
2019-01-15T22:43:09.516Z,7.30
2019-01-15T22:46:15.687Z,7.30
2019-01-15T22:49:22.350Z,7.30
2019-01-15T22:52:29.765Z,7.40
2019-01-15T22:55:36.656Z,7.40
2019-01-15T22:58:32.719Z,7.40
2019-01-15T23:01:36.422Z,7.50
2019-01-15T23:04:40.486Z,7.40
2019-01-15T23:07:48.426Z,7.40
2019-01-15T23:10:50.807Z,7.40
2019-01-15T23:13:56.423Z,7.50
2019-01-15T23:16:55.339Z,7.50
2019-01-15T23:20:06.105Z,7.40
2019-01-15T23:23:08.626Z,7.40
2019-01-15T23:26:32.509Z,7.40
2019-01-15T23:29:34.586Z,7.50
2019-01-15T23:32:40.362Z,7.50
2019-01-15T23:35:51.238Z,7.40
2019-01-15T23:38:58.643Z,7.50
2019-01-15T23:42:22.987Z,7.40
2019-01-15T23:45:44.983Z,7.50
2019-01-15T23:48:50.530Z,7.40
2019-01-15T23:51:56.315Z,7.40
2019-01-15T23:55:17.759Z,7.50
2019-01-15T23:58:16.595Z,7.40
